首页
METAR-TAF:

METAR-TAF

机场 :

克拉克斯堡, 西維吉尼亞州, 美国

纬度: 39-18-00N, 经度: 080-13-29W, 海拔: 366米

当前天气观测

该预报发布于16分钟前的09:53 UTC
风速11节,风向南转南东
温度 13°C
湿度 88%
气压 1003 hPa
能見度: 14.5公里
少量云层高于6000英尺
多云层高于7500英尺
阴天层高于10000英尺
小雨

METAR: KCKB 080953Z AUTO 16011KT 9SM -RA FEW060 BKN075 OVC100 13/11 A2962 RMK AO2 PRESFR SLP019 P0021 T01330106

时间: 06:09 (10:09 UTC)

预报

该预报发布于1小时和8分钟前的09:01 UTC
预报有效从08日的 09点(UTC)到 09日的 06点(UTC)
风速10节,风向,有时为18节阵风
能見度: 8.0公里
散云层高于2000英尺, 积雨云.
阴天层高于4500英尺
小阵雨, 附近有雷暴
从 08日的 1100点(UTC)
风速9节,风向北转西北
能見度: 10公里
多云层高于4500英尺
从 08日的 1700点(UTC)
风速12节,风向西转西北,有时为18节阵风
能見度: 10公里
少量云层高于5000英尺
从 08日的 2300点(UTC)
风速4节,风向西北
能見度: 10公里
少量云层高于25000英尺

TAF: KCKB 080901Z 0809/0906 36010G18KT 5SM -SHRA VCTS SCT020CB OVC045 FM081100 34009KT P6SM BKN045 FM081700 30012G18KT P6SM FEW050 FM082300 31004KT P6SM FEW250

超过4000个机场的气象观测和天气预报(METAR&TAF报告)。

可查询的气象台以黄色和红色小点在地图上表示。

将鼠标移到小点上方,可查看气象台名称。

然后点击查看天气观测和预报。

如需切换地图:点击带黑十字的绿色按钮放大地图;点击带横线的绿色按钮缩小地图;或者点击绿色箭头查看邻近地区的地图。


METAR-TAF: